AirNav   Air Wisconsin Up To $57,000 Bonus
 
 1240 users online  

4NY2 EDO Seaplane Base
College Point, New York, USA

GOING TO COLLEGE POINT?


FAA INFORMATION EFFECTIVE 01 DECEMBER 2022

Location

FAA Identifier: 4NY2
Lat/Long: 40-47-00.3640N 073-51-58.4870W
40-47.006067N 073-51.974783W
40.7834344,-73.8662464
(estimated)
Elevation: 0 ft. / 0 m (estimated)
Variation: 13W (1985)
Time zone: UTC -5 (UTC -4 during Daylight Saving Time)
Zip code: 11371

Seaplane Base Operations

Seaplane Base use: Private use. Permission required prior to landing
Activation date: 05/1948
Control tower: no
ARTCC: NEW YORK CENTER
FSS: NEW YORK FLIGHT SERVICE STATION
Attendance: MON-FRI 0800-1600
Wind indicator: yes
Segmented circle: no

Seaplane Base Communications

WX ASOS at LGA (0.5 nm SW): PHONE 718-672-6317
WX AWOS-3PT at JRB (8 nm SW): 128.175 (212-425-1534)
WX ASOS at JFK (9 nm SE): 128.725 (718-656-0956)
WX ASOS at TEB (10 nm NW): PHONE 201-393-0855
WX ASOS at EWR (15 nm W): PHONE 973-621-2892
WX ASOS at HPN (18 nm NE): PHONE 914-288-0216
WX ASOS at CDW (20 nm W): 135.5 (973-575-4417)
WX AWOS-3 at LDJ (20 nm SW): 124.025 (908-862-7383)

Nearby radio navigation aids

VOR radial/distance  VOR name  Freq  Var
LGA at fieldLA GUARDIA VOR/DME113.1012W
TEBr125/9.7TETERBORO VOR/DME108.4011W
JFKr346/10.0KENNEDY VOR/DME115.9012W
CRIr018/10.3CANARSIE VOR/DME112.3011W
DPKr281/25.6DEER PARK VOR/DME117.7012W
COLr036/31.3COLTS NECK VOR/DME115.4011W
CMKr215/32.5CARMEL VOR/DME116.6012W
SAXr130/34.9SPARTA VORTAC115.7011W

 
NDB name  Hdg/Dist  Freq  Var  ID
TORBY108/12.221412WTE - .
CHATHAM097/25.725413WCAT -.-. .- -

Seaplane Base Services

Airframe service: NONE
Powerplant service: NONE

Runway Information

Runway NE/SW

Dimensions: 10000 x 500 ft. / 3048 x 152 m
Surface: water
RUNWAY NE  RUNWAY SW
Traffic pattern: leftleft

Runway NW/SE

Dimensions: 10000 x 500 ft. / 3048 x 152 m
Surface: water
RUNWAY NW  RUNWAY SE
Traffic pattern: leftleft

Runway N/S

Dimensions: 5000 x 500 ft. / 1524 x 152 m
Surface: water
RUNWAY N  RUNWAY S
Traffic pattern: leftleft

Seaplane Base Ownership and Management from official FAA records

Ownership: Privately-owned
Owner: EDO CORP.
Manager: J.J. FREY, FLOAT OPERATIONS
14-04 111 ST
COLLEGE POINT, NY 11356
Phone 718-445-6000

Additional Remarks

THIS IS A PVT FAC USED TO SUPPORT EDOS SPB OPERN.
FOR CD CTC NEW YORK APCH AT 516-683-2849.

Instrument Procedures

There are no published instrument procedures at 4NY2.

Some nearby airports with instrument procedures:

KLGA - LaGuardia Airport (0 nm SW)
6N5 - East 34th Street Heliport (5 nm SW)
KJRA - West 30th St Heliport (7 nm W)
KJRB - Downtown Manhattan/Wall Street Heliport (8 nm SW)
KJFK - John F Kennedy International Airport (9 nm SE)
KTEB - Teterboro Airport (10 nm NW)
KEWR - Newark Liberty International Airport (15 nm W)
KHPN - Westchester County Airport (18 nm NE)
KCDW - Essex County Airport (20 nm W)
KLDJ - Linden Airport (20 nm SW)
 
Loc | Ops | Rwys | IFR | FBO | Links
Com | Nav | Svcs | Stats | Notes
Area around 4NY2 (EDO Seaplane Base)
 
Road maps at: MapQuest Bing Google
 
Aerial photo
No photo
 
Sectional chart

 
Airport distance calculator
Flying to EDO Seaplane Base? Find the distance to fly.

From to 4NY2

Sunrise and sunset
Times for 01-Dec-2022
 Local
(UTC-5)
 Zulu
(UTC)
Morning civil twilight06:3111:31
Sunrise07:0112:01
Sunset16:2821:28
Evening civil twilight16:5821:58

Current date and time
Zulu (UTC)  01-Dec-2022 23:32:16
Local (UTC-5)  01-Dec-2022 18:32:16
 
METAR
KLGA 012251Z 30016G24KT 10SM CLR 06/M08 A3039 RMK AO2 SLP289 T00561078
KNYC 
5nm W 
012251Z AUTO VRB05KT 10SM CLR 05/M08 A3041 RMK AO2 SLP289 T00501078 $
KJRB 
8nm SW 
012256Z AUTO 25006KT 10SM CLR A3040 RMK AO2 SLPNO FZRANO $
KTEB 
10nm NW 
012251Z 30009KT 10SM CLR 04/M07 A3039 RMK AO2 SLP290 T00391072
KJFK 
10nm SE 
012251Z 30012G21KT 10SM FEW055 05/M07 A3039 RMK AO2 SLP292 T00501067
KEWR 
15nm SW 
012251Z 26009KT 10SM CLR 05/M07 A3040 RMK AO2 SLP293 T00501072
KHPN 
19nm NE 
012256Z 28009KT 10SM CLR 04/M08 A3036 RMK AO2 SLP286 T00391078
KCDW 
20nm W 
012253Z 32008KT 10SM CLR 04/M08 A3040 RMK AO2 SLP301 T00391083
KLDJ 
20nm SW 
012315Z AUTO 28007KT 10SM CLR 04/M07 A3042 RMK AO2 T00371070
TAF
KLGA 012057Z 0121/0224 30015G22KT P6SM FEW060 FM020100 30011KT P6SM SKC FM020500 30008KT P6SM SKC FM020900 30005KT P6SM FEW250 FM021300 VRB04KT P6SM FEW250 FM021500 21006KT P6SM FEW250 FM021800 20009KT P6SM FEW250
KTEB 
10nm NW 
012057Z 0121/0224 29013G19KT P6SM SKC FM012200 33009G15KT P6SM SKC FM020100 30007KT P6SM SKC FM020500 VRB03KT P6SM FEW250 FM021600 22006KT P6SM FEW250 FM021800 19008KT P6SM FEW250
KJFK 
10nm SE 
012057Z 0121/0224 29017G23KT P6SM FEW060 FM012300 30015G21KT P6SM SKC FM020100 30012KT P6SM SKC FM020400 30008KT P6SM SKC FM020800 30005KT P6SM FEW250 FM021300 VRB04KT P6SM FEW250 FM021500 20008KT P6SM FEW250 FM021800 19010KT P6SM FEW250
KEWR 
15nm SW 
012057Z 0121/0224 29017G24KT P6SM SCT060 FM012300 29014G20KT P6SM SKC FM020100 29011KT P6SM SKC FM020300 28007KT P6SM SKC FM020800 27004KT P6SM SKC FM021300 VRB04KT P6SM FEW250 FM021500 22006KT P6SM FEW250 FM021800 20008KT P6SM FEW250
KHPN 
19nm NE 
012057Z 0121/0218 29012G18KT P6SM FEW050 FM012300 29010KT P6SM SKC FM020200 29006KT P6SM SKC FM020600 VRB03KT P6SM FEW250 FM021500 22007KT P6SM FEW250 AMD NOT SKED
NOTAMs
Click for the latest NOTAMs
NOTAMs are issued by the DoD/FAA and will open in a separate window not controlled by AirNav.

 

 
 

Would you like to see your business listed on this page?

 If your business provides an interesting product or service to pilots, flight crews, aircraft, or users of the EDO Seaplane Base, you should consider listing it here.  To start the listing process, click on the button below
 
Add a business
 

Other Pages about EDO Seaplane Base

Update a link
 
Copyright © AirNav, LLC. All rights reserved. Privacy Policy  Contact